createdAt,value
2018-08-22T00:00:26.649Z,93.30
2018-08-22T00:02:54.936Z,93.30
2018-08-22T00:05:23.216Z,93.40
2018-08-22T00:07:51.496Z,93.70
2018-08-22T00:10:19.800Z,93.80
2018-08-22T00:12:48.100Z,94.00
2018-08-22T00:15:16.429Z,93.90
2018-08-22T00:17:44.654Z,93.90
2018-08-22T00:20:12.924Z,94.00
2018-08-22T00:22:41.203Z,93.90
2018-08-22T00:25:09.465Z,94.00
2018-08-22T00:27:37.744Z,93.90
2018-08-22T00:30:06.412Z,93.60
2018-08-22T00:32:34.727Z,93.50
2018-08-22T00:35:03.064Z,93.70
2018-08-22T00:37:31.344Z,93.70
2018-08-22T00:39:59.627Z,94.00
2018-08-22T00:42:27.892Z,94.30
2018-08-22T00:44:56.165Z,94.10
2018-08-22T00:47:24.444Z,94.00
2018-08-22T00:49:52.725Z,94.10
2018-08-22T00:52:20.981Z,94.00
2018-08-22T00:54:49.252Z,94.00
2018-08-22T00:57:17.726Z,94.20
2018-08-22T00:59:46.016Z,94.20
2018-08-22T01:02:14.316Z,94.20
2018-08-22T01:04:42.611Z,94.00
2018-08-22T01:07:10.897Z,94.30
2018-08-22T01:09:39.165Z,94.30
2018-08-22T01:12:07.436Z,94.60
2018-08-22T01:14:35.714Z,94.50
2018-08-22T01:17:04.021Z,94.30
2018-08-22T01:19:32.301Z,94.60
2018-08-22T01:22:00.572Z,94.60
2018-08-22T01:24:28.865Z,94.70
2018-08-22T01:26:57.149Z,94.70
2018-08-22T01:29:25.424Z,94.80
2018-08-22T01:31:53.704Z,94.50
2018-08-22T01:34:21.981Z,94.30
2018-08-22T01:36:50.281Z,94.70
2018-08-22T01:39:18.568Z,94.70
2018-08-22T01:41:46.850Z,94.80
2018-08-22T01:44:15.133Z,94.90
2018-08-22T01:46:43.424Z,95.00
2018-08-22T01:49:11.699Z,95.00
2018-08-22T01:51:39.968Z,94.70
2018-08-22T01:54:08.242Z,94.80
2018-08-22T01:56:36.526Z,95.00
2018-08-22T01:59:04.809Z,95.80
2018-08-22T02:01:33.082Z,95.30
2018-08-22T02:04:01.361Z,95.20
2018-08-22T02:06:29.701Z,95.10
2018-08-22T02:08:58.012Z,95.20
2018-08-22T02:11:26.276Z,95.20
2018-08-22T02:13:54.556Z,95.40
2018-08-22T02:16:22.849Z,95.40
2018-08-22T02:18:51.145Z,95.50
2018-08-22T02:21:19.465Z,95.50
2018-08-22T02:23:47.754Z,95.60
2018-08-22T02:26:16.036Z,95.80
2018-08-22T02:28:44.325Z,95.90
2018-08-22T02:31:12.620Z,95.80
2018-08-22T02:33:40.940Z,95.90
2018-08-22T02:36:09.180Z,95.60
2018-08-22T02:38:37.473Z,95.40
2018-08-22T02:41:05.825Z,95.50
2018-08-22T02:43:34.125Z,95.70
2018-08-22T02:46:02.412Z,95.70
2018-08-22T02:48:34.805Z,95.80
2018-08-22T02:51:03.073Z,95.80
2018-08-22T02:53:31.332Z,95.90
2018-08-22T02:55:59.608Z,96.10
2018-08-22T02:58:27.894Z,96.20
2018-08-22T03:00:56.176Z,96.10
2018-08-22T03:03:24.488Z,96.50
2018-08-22T03:05:52.778Z,96.60
2018-08-22T03:08:21.060Z,96.80
2018-08-22T03:10:49.341Z,97.10
2018-08-22T03:13:17.654Z,96.80
2018-08-22T03:15:45.949Z,96.90
2018-08-22T03:18:14.248Z,97.00
2018-08-22T03:20:42.530Z,97.10
2018-08-22T03:23:10.813Z,97.20
2018-08-22T03:25:39.082Z,97.10
2018-08-22T03:28:07.388Z,97.30
2018-08-22T03:30:35.687Z,97.30
2018-08-22T03:33:05.075Z,97.20
2018-08-22T03:35:33.566Z,97.10
2018-08-22T03:38:01.854Z,96.80
2018-08-22T03:40:30.168Z,96.90
2018-08-22T03:42:58.596Z,97.00
2018-08-22T03:45:26.868Z,97.40
2018-08-22T03:47:55.136Z,97.00
2018-08-22T03:50:23.406Z,97.00
2018-08-22T03:52:51.677Z,97.30
2018-08-22T03:55:19.949Z,97.40
2018-08-22T03:57:48.237Z,97.40
2018-08-22T04:00:16.528Z,97.50
2018-08-22T04:02:44.813Z,97.60
2018-08-22T04:05:13.102Z,97.90
2018-08-22T04:07:41.393Z,97.80
2018-08-22T04:10:09.677Z,97.80
2018-08-22T04:12:44.383Z,98.10
2018-08-22T04:15:12.701Z,97.90
2018-08-22T04:17:41.408Z,97.90
2018-08-22T04:20:10.005Z,97.80
2018-08-22T04:22:39.505Z,97.70
2018-08-22T04:25:08.213Z,97.60
2018-08-22T04:27:36.527Z,97.60
2018-08-22T04:30:05.260Z,97.80
2018-08-22T04:32:33.520Z,97.90
2018-08-22T04:35:01.817Z,97.60
2018-08-22T04:37:30.119Z,97.40
2018-08-22T04:39:58.370Z,97.50
2018-08-22T04:42:26.727Z,97.90
2018-08-22T04:44:54.993Z,97.40
2018-08-22T04:47:23.287Z,97.40
2018-08-22T04:49:51.557Z,97.50
2018-08-22T04:52:19.844Z,97.60
2018-08-22T04:54:48.118Z,97.60
2018-08-22T04:57:16.405Z,97.50
2018-08-22T04:59:44.704Z,97.40
2018-08-22T05:02:13.029Z,97.40
2018-08-22T05:04:41.319Z,97.40
2018-08-22T05:07:09.606Z,97.10
2018-08-22T05:09:37.897Z,97.10
2018-08-22T05:12:06.191Z,97.20
2018-08-22T05:14:34.498Z,96.90
2018-08-22T05:17:02.777Z,97.00
2018-08-22T05:19:31.077Z,96.80
2018-08-22T05:21:59.372Z,96.50
2018-08-22T05:24:27.663Z,96.40
2018-08-22T05:26:55.946Z,96.70
2018-08-22T05:29:24.217Z,96.30
2018-08-22T05:31:52.552Z,96.30
2018-08-22T05:34:20.833Z,96.00
2018-08-22T05:36:49.183Z,95.80
2018-08-22T05:39:17.449Z,95.40
2018-08-22T05:41:45.753Z,95.20
2018-08-22T05:44:14.053Z,95.30
2018-08-22T05:46:42.358Z,95.30
2018-08-22T05:49:10.737Z,95.50
2018-08-22T05:51:38.953Z,95.20
2018-08-22T05:54:07.364Z,95.20
2018-08-22T05:56:35.624Z,95.00
2018-08-22T05:59:03.914Z,94.50
2018-08-22T06:01:32.219Z,94.50
2018-08-22T06:04:00.492Z,94.30
2018-08-22T06:06:28.752Z,94.30
2018-08-22T06:08:57.027Z,94.10
2018-08-22T06:11:25.332Z,93.80
2018-08-22T06:13:53.615Z,93.40
2018-08-22T06:16:21.885Z,93.10
2018-08-22T06:18:50.156Z,93.00
2018-08-22T06:21:18.468Z,92.80
2018-08-22T06:23:46.717Z,92.80
2018-08-22T06:26:15.081Z,92.60
2018-08-22T06:28:43.744Z,92.80
2018-08-22T06:31:12.007Z,92.20
2018-08-22T06:33:40.273Z,91.80
2018-08-22T06:36:08.540Z,91.60
2018-08-22T06:38:36.809Z,91.40
2018-08-22T06:41:05.243Z,90.80
2018-08-22T06:43:33.509Z,90.90
2018-08-22T06:46:01.776Z,91.10
2018-08-22T06:48:30.065Z,90.90
2018-08-22T06:50:58.337Z,90.50
2018-08-22T06:53:26.626Z,89.90
2018-08-22T06:55:54.892Z,88.40
2018-08-22T06:58:23.150Z,89.40
2018-08-22T07:00:51.432Z,88.40
2018-08-22T07:03:19.697Z,89.00
2018-08-22T07:05:47.997Z,89.70
2018-08-22T07:08:16.306Z,87.50
2018-08-22T07:10:44.561Z,86.90
2018-08-22T07:13:12.852Z,87.10
2018-08-22T07:15:41.125Z,86.70
2018-08-22T07:18:09.464Z,85.60
2018-08-22T07:20:37.729Z,84.10
2018-08-22T07:23:06.045Z,84.00
2018-08-22T07:25:34.325Z,84.00
2018-08-22T07:28:02.708Z,82.80
2018-08-22T07:30:31.004Z,83.10
2018-08-22T07:32:59.289Z,82.00
2018-08-22T07:35:27.569Z,82.10
2018-08-22T07:37:55.853Z,82.40
2018-08-22T07:40:24.124Z,81.30
2018-08-22T07:42:52.400Z,80.40
2018-08-22T07:45:20.698Z,80.50
2018-08-22T07:47:48.992Z,80.20
2018-08-22T07:50:17.282Z,80.20
2018-08-22T07:52:54.069Z,79.30
2018-08-22T07:55:22.401Z,79.10
2018-08-22T07:57:50.668Z,79.10
2018-08-22T08:00:18.945Z,78.70
2018-08-22T08:02:47.217Z,77.80
2018-08-22T08:05:15.513Z,77.50
2018-08-22T08:07:43.793Z,77.20
2018-08-22T08:10:17.164Z,76.10
2018-08-22T08:12:45.513Z,75.40
2018-08-22T08:15:14.714Z,76.10
2018-08-22T08:17:43.081Z,74.70
2018-08-22T08:20:11.352Z,75.30
2018-08-22T08:22:39.637Z,74.90
2018-08-22T08:25:07.918Z,73.70
2018-08-22T08:27:36.202Z,74.90
2018-08-22T08:30:05.593Z,74.90
2018-08-22T08:32:33.880Z,73.00
2018-08-22T08:35:02.165Z,73.60
2018-08-22T08:37:30.496Z,74.10
2018-08-22T08:39:58.744Z,74.00
2018-08-22T08:42:27.020Z,73.20
2018-08-22T08:44:55.321Z,72.60
2018-08-22T08:47:24.029Z,73.70
2018-08-22T08:49:52.406Z,70.90
2018-08-22T08:52:20.695Z,71.10
2018-08-22T08:54:49.001Z,70.30
2018-08-22T08:57:17.336Z,70.60
2018-08-22T08:59:45.545Z,71.30
2018-08-22T09:02:13.835Z,71.10
2018-08-22T09:04:42.118Z,71.00
2018-08-22T09:07:10.389Z,71.10
2018-08-22T09:09:38.727Z,69.60
2018-08-22T09:12:08.213Z,69.40
2018-08-22T09:14:37.616Z,67.60
2018-08-22T09:17:06.465Z,67.80
2018-08-22T09:19:35.000Z,68.50
2018-08-22T09:22:03.573Z,67.40
2018-08-22T09:24:31.912Z,66.10
2018-08-22T09:27:00.135Z,65.70
2018-08-22T09:29:28.437Z,65.90
2018-08-22T09:31:56.669Z,65.90
2018-08-22T09:34:24.973Z,65.70
2018-08-22T09:36:53.210Z,64.40
2018-08-22T09:39:21.549Z,63.30
2018-08-22T09:41:49.795Z,63.10
2018-08-22T09:44:18.094Z,63.60
2018-08-22T09:46:46.347Z,62.00
2018-08-22T09:49:14.613Z,61.30
2018-08-22T09:51:42.878Z,59.40
2018-08-22T09:54:11.153Z,58.80
2018-08-22T09:56:39.421Z,59.20
2018-08-22T09:59:07.693Z,59.90
2018-08-22T10:01:42.775Z,60.60
2018-08-22T10:04:11.097Z,60.20
2018-08-22T10:06:47.192Z,60.60
2018-08-22T10:09:17.824Z,59.80
2018-08-22T10:11:46.162Z,58.90
2018-08-22T10:14:14.521Z,58.70
2018-08-22T10:16:42.807Z,57.50
2018-08-22T10:19:11.100Z,57.40
2018-08-22T10:21:39.370Z,55.80
2018-08-22T10:24:07.653Z,58.30
2018-08-22T10:26:35.954Z,57.50
2018-08-22T10:29:04.209Z,57.00
2018-08-22T10:31:32.477Z,57.60
2018-08-22T10:34:00.749Z,56.90
2018-08-22T10:36:29.041Z,56.80
2018-08-22T10:38:57.312Z,55.90
2018-08-22T10:41:25.604Z,56.40
2018-08-22T10:43:53.876Z,56.10
2018-08-22T10:46:22.140Z,56.10
2018-08-22T10:48:50.545Z,56.50
2018-08-22T10:51:18.826Z,55.30
2018-08-22T10:53:47.116Z,54.50
2018-08-22T10:56:15.357Z,54.60
2018-08-22T10:58:43.713Z,54.30
2018-08-22T11:01:11.988Z,56.30
2018-08-22T11:03:40.262Z,55.40
2018-08-22T11:06:08.610Z,55.20
2018-08-22T11:08:36.897Z,55.20
2018-08-22T11:11:05.210Z,53.50
2018-08-22T11:13:33.520Z,54.70
2018-08-22T11:16:01.852Z,55.30
2018-08-22T11:18:30.092Z,54.20
2018-08-22T11:21:09.658Z,54.50
2018-08-22T11:23:49.189Z,55.30
2018-08-22T11:26:28.901Z,55.80
2018-08-22T11:29:08.415Z,54.50
2018-08-22T11:31:48.084Z,55.20
2018-08-22T11:34:27.654Z,55.60
2018-08-22T11:37:02.884Z,53.60
2018-08-22T11:39:31.200Z,53.80
2018-08-22T11:41:59.496Z,54.30
2018-08-22T11:44:27.786Z,53.80
2018-08-22T11:46:56.042Z,53.90
2018-08-22T11:49:24.317Z,53.00
2018-08-22T11:51:52.602Z,50.30
2018-08-22T11:54:20.956Z,51.40
2018-08-22T11:56:49.248Z,53.00
2018-08-22T11:59:17.865Z,52.60
2018-08-22T12:01:46.142Z,53.20
2018-08-22T12:04:14.431Z,53.30
2018-08-22T12:06:42.703Z,52.70
2018-08-22T12:09:12.401Z,53.80
2018-08-22T12:11:41.293Z,53.30
2018-08-22T12:14:09.930Z,53.40
2018-08-22T12:16:38.344Z,53.40
2018-08-22T12:19:07.049Z,53.20
2018-08-22T12:21:35.329Z,52.20
2018-08-22T12:24:03.896Z,52.40
2018-08-22T12:26:32.188Z,52.40
2018-08-22T12:29:00.476Z,52.50
2018-08-22T12:31:28.936Z,52.80
2018-08-22T12:33:57.525Z,53.60
2018-08-22T12:36:25.807Z,52.30
2018-08-22T12:38:54.103Z,53.40
2018-08-22T12:41:22.402Z,53.30
2018-08-22T12:43:50.668Z,53.40
2018-08-22T12:46:18.951Z,52.80
2018-08-22T12:48:47.229Z,52.40
2018-08-22T12:51:15.497Z,51.70
2018-08-22T12:53:43.781Z,50.40
2018-08-22T12:56:12.065Z,51.30
2018-08-22T12:58:40.337Z,52.10
2018-08-22T13:01:08.871Z,51.60
2018-08-22T13:03:37.185Z,52.40
2018-08-22T13:06:05.752Z,51.50
2018-08-22T13:08:34.028Z,52.60
2018-08-22T13:11:02.351Z,52.70
2018-08-22T13:13:30.860Z,51.80
2018-08-22T13:15:59.251Z,52.20
2018-08-22T13:18:27.560Z,51.20
2018-08-22T13:20:55.896Z,51.60
2018-08-22T13:23:24.167Z,51.80
2018-08-22T13:25:52.432Z,51.60
2018-08-22T13:28:20.736Z,52.40
2018-08-22T13:30:49.023Z,52.40
2018-08-22T13:33:17.321Z,51.40
2018-08-22T13:35:52.256Z,51.20
2018-08-22T13:38:20.530Z,50.90
2018-08-22T13:40:48.791Z,51.20
2018-08-22T13:43:17.094Z,50.40
2018-08-22T13:45:45.376Z,50.20
2018-08-22T13:48:13.657Z,50.00
2018-08-22T13:50:41.979Z,50.40
2018-08-22T13:53:10.237Z,50.20
2018-08-22T13:55:38.521Z,51.00
2018-08-22T13:58:06.948Z,50.50
2018-08-22T14:00:35.279Z,49.70
2018-08-22T14:03:03.585Z,50.60
2018-08-22T14:05:31.846Z,50.20
2018-08-22T14:08:00.132Z,49.50
2018-08-22T14:10:28.403Z,50.30
2018-08-22T14:15:31.341Z,50.00
2018-08-22T14:17:59.636Z,49.90
2018-08-22T14:20:27.916Z,49.20
2018-08-22T14:22:56.221Z,49.40
2018-08-22T14:25:24.515Z,49.40
2018-08-22T14:27:52.792Z,49.40
2018-08-22T14:30:21.070Z,48.80
2018-08-22T14:32:49.344Z,48.80
2018-08-22T14:35:17.781Z,48.90
2018-08-22T14:37:46.077Z,49.30
2018-08-22T14:40:14.333Z,49.00
2018-08-22T14:42:42.621Z,48.60
2018-08-22T14:45:10.900Z,48.50
2018-08-22T14:47:39.180Z,48.60
2018-08-22T14:50:07.897Z,48.50
2018-08-22T14:52:36.978Z,47.50
2018-08-22T14:55:05.317Z,47.80
2018-08-22T14:57:33.617Z,48.00
2018-08-22T15:00:02.515Z,48.30
2018-08-22T15:02:30.823Z,48.20
2018-08-22T15:04:59.117Z,47.80
2018-08-22T15:07:27.401Z,47.10
2018-08-22T15:09:55.688Z,47.40
2018-08-22T15:12:23.953Z,47.10
2018-08-22T15:14:52.226Z,47.30
2018-08-22T15:17:20.528Z,46.90
2018-08-22T15:19:48.808Z,46.40
2018-08-22T15:22:17.098Z,46.60
2018-08-22T15:24:45.373Z,46.70
2018-08-22T15:27:13.674Z,46.30
2018-08-22T15:29:41.981Z,46.40
2018-08-22T15:32:10.258Z,46.10
2018-08-22T15:34:51.496Z,46.00
2018-08-22T15:37:20.173Z,46.30
2018-08-22T15:39:48.596Z,45.80
2018-08-22T15:42:16.885Z,45.40
2018-08-22T15:44:45.161Z,46.20
2018-08-22T15:47:14.151Z,46.30
2018-08-22T15:49:42.802Z,46.60
2018-08-22T15:52:11.080Z,46.10
2018-08-22T15:54:39.368Z,46.00
2018-08-22T15:57:07.652Z,45.20
2018-08-22T15:59:35.933Z,44.00
2018-08-22T16:02:04.216Z,43.60
2018-08-22T16:04:47.644Z,43.70
2018-08-22T16:07:16.829Z,44.80
2018-08-22T16:09:45.093Z,44.10
2018-08-22T16:12:13.378Z,44.70
2018-08-22T16:14:41.770Z,44.20
2018-08-22T16:17:09.960Z,44.00
2018-08-22T16:19:38.237Z,43.90
2018-08-22T16:22:07.353Z,43.60
2018-08-22T16:24:36.002Z,44.20
2018-08-22T16:27:04.303Z,43.50
2018-08-22T16:29:32.633Z,43.40
2018-08-22T16:32:00.908Z,42.10
2018-08-22T16:34:29.187Z,43.10
2018-08-22T16:36:57.460Z,42.30
2018-08-22T16:39:37.954Z,42.70
2018-08-22T16:42:07.132Z,42.50
2018-08-22T16:44:35.401Z,43.40
2018-08-22T16:47:03.693Z,42.40
2018-08-22T16:49:32.073Z,42.70
2018-08-22T16:52:00.305Z,42.80
2018-08-22T16:54:28.610Z,42.70
2018-08-22T16:56:56.881Z,42.80
2018-08-22T16:59:25.159Z,42.80
2018-08-22T17:01:53.469Z,43.10
2018-08-22T17:04:21.712Z,43.00
2018-08-22T17:06:50.093Z,43.80
2018-08-22T17:09:18.461Z,44.10
2018-08-22T17:11:46.859Z,44.80
2018-08-22T17:14:15.134Z,43.80
2018-08-22T17:16:43.408Z,42.40
2018-08-22T17:19:11.802Z,40.90
2018-08-22T17:21:40.093Z,40.20
2018-08-22T17:24:08.388Z,40.20
2018-08-22T17:26:36.868Z,38.70
2018-08-22T17:29:05.164Z,38.70
2018-08-22T17:31:39.921Z,38.70
2018-08-22T17:34:08.284Z,39.10
2018-08-22T17:36:36.575Z,38.70
2018-08-22T17:39:06.483Z,38.80
2018-08-22T17:41:34.758Z,39.10
2018-08-22T17:44:11.640Z,39.50
2018-08-22T17:46:42.293Z,40.80
2018-08-22T17:49:10.581Z,43.00
2018-08-22T17:52:05.169Z,41.30
2018-08-22T17:54:33.614Z,43.50
2018-08-22T17:57:13.772Z,43.80
2018-08-22T17:59:42.942Z,44.50
2018-08-22T18:02:11.608Z,45.20
2018-08-22T18:04:52.383Z,46.10
2018-08-22T18:07:21.432Z,47.70
2018-08-22T18:09:50.309Z,48.20
2018-08-22T18:12:19.312Z,48.00
2018-08-22T18:14:47.745Z,48.40
2018-08-22T18:17:18.631Z,48.80
2018-08-22T18:19:47.022Z,49.90
2018-08-22T18:22:15.329Z,49.90
2018-08-22T18:24:49.207Z,51.10
2018-08-22T18:27:17.523Z,51.50
2018-08-22T18:29:46.978Z,52.60
2018-08-22T18:32:15.960Z,52.60
2018-08-22T18:34:56.587Z,53.20
2018-08-22T18:37:25.729Z,53.30
2018-08-22T18:40:05.447Z,54.60
2018-08-22T18:42:33.718Z,55.00
2018-08-22T18:45:02.019Z,56.20
2018-08-22T18:47:31.553Z,56.60
2018-08-22T18:49:59.865Z,58.90
2018-08-22T18:52:28.134Z,57.80
2018-08-22T18:54:56.451Z,57.00
2018-08-22T18:57:24.724Z,57.10
2018-08-22T18:59:53.177Z,57.30
2018-08-22T19:02:21.452Z,58.30
2018-08-22T19:04:49.736Z,58.80
2018-08-22T19:07:18.161Z,58.70
2018-08-22T19:09:46.458Z,60.00
2018-08-22T19:12:14.818Z,61.20
2018-08-22T19:14:46.665Z,62.50
2018-08-22T19:17:17.112Z,63.30
2018-08-22T19:19:46.718Z,64.00
2018-08-22T19:22:16.502Z,65.00
2018-08-22T19:25:04.280Z,66.60
2018-08-22T19:27:34.051Z,67.00
2018-08-22T19:30:04.514Z,66.10
2018-08-22T19:32:32.789Z,65.80
2018-08-22T19:35:01.064Z,66.30
2018-08-22T19:37:29.324Z,67.60
2018-08-22T19:40:07.824Z,69.00
2018-08-22T19:42:37.537Z,69.20
2018-08-22T19:45:08.464Z,69.20
2018-08-22T19:47:38.193Z,70.20
2018-08-22T19:50:07.377Z,69.60
2018-08-22T19:52:35.662Z,70.80
2018-08-22T19:55:06.695Z,71.30
2018-08-22T19:57:36.504Z,71.40
2018-08-22T20:00:06.811Z,72.00
2018-08-22T20:02:35.869Z,73.10
2018-08-22T20:05:04.410Z,72.40
2018-08-22T20:07:32.691Z,74.30
2018-08-22T20:10:00.977Z,72.80
2018-08-22T20:12:40.243Z,73.20
2018-08-22T20:15:08.604Z,74.20
2018-08-22T20:17:36.905Z,72.90
2018-08-22T20:20:05.779Z,72.90
2018-08-22T20:22:39.430Z,73.20
2018-08-22T20:25:08.074Z,73.60
2018-08-22T20:27:36.460Z,73.70
2018-08-22T20:30:10.473Z,73.70
2018-08-22T20:32:43.222Z,74.80
2018-08-22T20:35:11.526Z,75.20
2018-08-22T20:37:39.818Z,76.10
2018-08-22T20:42:42.825Z,77.30
2018-08-22T20:45:14.385Z,76.80
2018-08-22T20:47:42.686Z,77.10
2018-08-22T20:50:11.022Z,78.00
2018-08-22T20:52:39.313Z,77.40
2018-08-22T20:55:08.386Z,78.50
2018-08-22T20:57:36.985Z,78.60
2018-08-22T21:00:05.953Z,79.00
2018-08-22T21:02:34.231Z,79.20
2018-08-22T21:05:02.617Z,80.00
2018-08-22T21:07:36.080Z,80.20
2018-08-22T21:10:04.389Z,81.00
2018-08-22T21:12:32.729Z,81.80
2018-08-22T21:15:01.024Z,81.00
2018-08-22T21:17:29.805Z,82.40
2018-08-22T21:19:58.128Z,83.00
2018-08-22T21:22:29.934Z,83.50
2018-08-22T21:24:59.813Z,82.80
2018-08-22T21:27:28.056Z,82.50
2018-08-22T21:29:56.325Z,82.90
2018-08-22T21:32:24.605Z,83.20
2018-08-22T21:34:52.905Z,82.70
2018-08-22T21:37:28.525Z,82.70
2018-08-22T21:39:56.914Z,83.90
2018-08-22T21:42:31.922Z,84.50
2018-08-22T21:45:00.213Z,85.00
2018-08-22T21:47:28.505Z,84.40
2018-08-22T21:49:56.796Z,84.60
2018-08-22T21:52:25.142Z,85.70
2018-08-22T21:54:53.449Z,86.10
2018-08-22T21:57:21.686Z,85.90
2018-08-22T21:59:55.917Z,85.70
2018-08-22T22:02:24.209Z,85.70
2018-08-22T22:04:52.501Z,86.30
2018-08-22T22:07:20.774Z,87.30
2018-08-22T22:09:51.455Z,87.60
2018-08-22T22:12:39.193Z,87.90
2018-08-22T22:15:07.861Z,88.20
2018-08-22T22:17:36.137Z,88.50
2018-08-22T22:20:04.451Z,88.40
2018-08-22T22:22:32.733Z,88.70
2018-08-22T22:25:02.848Z,88.70
2018-08-22T22:27:32.059Z,88.80
2018-08-22T22:30:02.078Z,89.10
2018-08-22T22:32:30.720Z,89.00
2018-08-22T22:34:59.000Z,89.60
2018-08-22T22:37:27.416Z,89.70
2018-08-22T22:39:55.718Z,90.00
2018-08-22T22:42:26.088Z,89.70
2018-08-22T22:44:55.334Z,90.00
2018-08-22T22:47:26.507Z,90.20
2018-08-22T22:49:55.109Z,90.50
2018-08-22T22:52:39.562Z,90.70
2018-08-22T22:55:08.865Z,90.40
2018-08-22T22:57:38.291Z,90.50
2018-08-22T23:00:08.290Z,90.60
2018-08-22T23:02:36.570Z,90.40
2018-08-22T23:05:04.916Z,90.70
2018-08-22T23:07:34.256Z,90.70
2018-08-22T23:10:06.733Z,90.50
2018-08-22T23:12:37.929Z,90.40
2018-08-22T23:15:08.496Z,90.40
2018-08-22T23:17:36.836Z,90.50
2018-08-22T23:20:14.958Z,90.90
2018-08-22T23:22:43.208Z,90.80
2018-08-22T23:25:11.827Z,90.80
2018-08-22T23:27:40.508Z,90.70
2018-08-22T23:30:08.913Z,90.80
2018-08-22T23:32:37.889Z,90.90
2018-08-22T23:35:19.430Z,91.30
2018-08-22T23:37:55.391Z,91.50
2018-08-22T23:40:24.837Z,91.40
2018-08-22T23:42:53.508Z,91.80
2018-08-22T23:45:21.825Z,91.80
2018-08-22T23:47:50.194Z,91.70
2018-08-22T23:50:18.464Z,91.70
2018-08-22T23:52:57.313Z,91.50
2018-08-22T23:55:26.163Z,91.70
2018-08-22T23:57:55.681Z,91.90
